sensor_id;sensor_type;location;lat;lon;timestamp;P1;durP1;ratioP1;P2;durP2;ratioP2
32894;SDS011;19251;49.484;8.260;2023-07-08T00:02:39;16.70;;;9.63;;
32894;SDS011;19251;49.484;8.260;2023-07-08T00:07:43;14.25;;;9.15;;
32894;SDS011;19251;49.484;8.260;2023-07-08T00:12:47;13.13;;;8.25;;
32894;SDS011;19251;49.484;8.260;2023-07-08T00:17:51;11.73;;;8.48;;
32894;SDS011;19251;49.484;8.260;2023-07-08T00:22:53;14.07;;;9.23;;
32894;SDS011;19251;49.484;8.260;2023-07-08T00:27:56;12.75;;;8.93;;
32894;SDS011;19251;49.484;8.260;2023-07-08T00:32:59;17.58;;;9.55;;
32894;SDS011;19251;49.484;8.260;2023-07-08T00:38:04;10.93;;;8.13;;
32894;SDS011;19251;49.484;8.260;2023-07-08T00:43:36;14.25;;;8.93;;
32894;SDS011;19251;49.484;8.260;2023-07-08T00:48:38;12.55;;;8.70;;
32894;SDS011;19251;49.484;8.260;2023-07-08T00:53:42;12.13;;;8.75;;
32894;SDS011;19251;49.484;8.260;2023-07-08T00:58:46;11.63;;;8.88;;
32894;SDS011;19251;49.484;8.260;2023-07-08T01:03:58;11.77;;;8.75;;
32894;SDS011;19251;49.484;8.260;2023-07-08T01:09:11;13.35;;;9.60;;
32894;SDS011;19251;49.484;8.260;2023-07-08T01:14:16;15.77;;;10.05;;
32894;SDS011;19251;49.484;8.260;2023-07-08T01:19:22;11.85;;;8.43;;
32894;SDS011;19251;49.484;8.260;2023-07-08T01:24:34;13.68;;;9.95;;
32894;SDS011;19251;49.484;8.260;2023-07-08T01:29:40;14.45;;;9.15;;
32894;SDS011;19251;49.484;8.260;2023-07-08T01:34:42;10.30;;;8.25;;
32894;SDS011;19251;49.484;8.260;2023-07-08T01:40:47;11.75;;;8.15;;
32894;SDS011;19251;49.484;8.260;2023-07-08T01:45:38;12.30;;;9.27;;
32894;SDS011;19251;49.484;8.260;2023-07-08T01:50:45;15.65;;;9.52;;
32894;SDS011;19251;49.484;8.260;2023-07-08T01:55:49;13.05;;;8.95;;
32894;SDS011;19251;49.484;8.260;2023-07-08T02:00:52;11.82;;;8.20;;
32894;SDS011;19251;49.484;8.260;2023-07-08T02:05:57;13.50;;;9.43;;
32894;SDS011;19251;49.484;8.260;2023-07-08T02:11:00;10.57;;;8.27;;
32894;SDS011;19251;49.484;8.260;2023-07-08T02:16:06;16.92;;;9.57;;
32894;SDS011;19251;49.484;8.260;2023-07-08T02:21:09;12.20;;;8.65;;
32894;SDS011;19251;49.484;8.260;2023-07-08T02:26:11;10.75;;;8.68;;
32894;SDS011;19251;49.484;8.260;2023-07-08T02:31:13;12.50;;;8.73;;
32894;SDS011;19251;49.484;8.260;2023-07-08T02:36:15;15.48;;;9.23;;
32894;SDS011;19251;49.484;8.260;2023-07-08T02:41:18;15.63;;;8.40;;
32894;SDS011;19251;49.484;8.260;2023-07-08T02:46:21;11.52;;;8.40;;
32894;SDS011;19251;49.484;8.260;2023-07-08T02:51:23;11.93;;;7.93;;
32894;SDS011;19251;49.484;8.260;2023-07-08T02:56:25;11.75;;;8.85;;
32894;SDS011;19251;49.484;8.260;2023-07-08T03:01:29;9.10;;;7.55;;
32894;SDS011;19251;49.484;8.260;2023-07-08T03:06:33;11.70;;;7.43;;
32894;SDS011;19251;49.484;8.260;2023-07-08T03:11:35;16.00;;;9.13;;
32894;SDS011;19251;49.484;8.260;2023-07-08T03:21:40;14.02;;;8.27;;
32894;SDS011;19251;49.484;8.260;2023-07-08T03:26:44;11.93;;;9.10;;
32894;SDS011;19251;49.484;8.260;2023-07-08T03:31:47;13.13;;;8.75;;
32894;SDS011;19251;49.484;8.260;2023-07-08T03:41:55;11.12;;;8.23;;
32894;SDS011;19251;49.484;8.260;2023-07-08T03:46:57;8.95;;;7.60;;
32894;SDS011;19251;49.484;8.260;2023-07-08T03:51:59;12.37;;;9.15;;
32894;SDS011;19251;49.484;8.260;2023-07-08T03:57:02;11.27;;;8.80;;
32894;SDS011;19251;49.484;8.260;2023-07-08T04:02:05;13.38;;;9.13;;
32894;SDS011;19251;49.484;8.260;2023-07-08T04:07:10;12.52;;;9.00;;
32894;SDS011;19251;49.484;8.260;2023-07-08T04:12:14;10.00;;;7.57;;
32894;SDS011;19251;49.484;8.260;2023-07-08T04:17:17;10.80;;;7.65;;
32894;SDS011;19251;49.484;8.260;2023-07-08T04:22:20;11.82;;;8.77;;
32894;SDS011;19251;49.484;8.260;2023-07-08T04:27:22;12.43;;;8.95;;
32894;SDS011;19251;49.484;8.260;2023-07-08T04:32:24;11.55;;;9.05;;
32894;SDS011;19251;49.484;8.260;2023-07-08T04:37:27;13.35;;;9.18;;
32894;SDS011;19251;49.484;8.260;2023-07-08T04:42:29;14.52;;;7.87;;
32894;SDS011;19251;49.484;8.260;2023-07-08T04:47:31;12.27;;;9.55;;
32894;SDS011;19251;49.484;8.260;2023-07-08T04:52:35;15.63;;;8.55;;
32894;SDS011;19251;49.484;8.260;2023-07-08T04:57:38;10.68;;;7.07;;
32894;SDS011;19251;49.484;8.260;2023-07-08T05:02:40;11.75;;;8.02;;
32894;SDS011;19251;49.484;8.260;2023-07-08T05:07:42;12.48;;;8.75;;
32894;SDS011;19251;49.484;8.260;2023-07-08T05:12:45;12.02;;;8.40;;
32894;SDS011;19251;49.484;8.260;2023-07-08T05:17:49;15.25;;;8.18;;
32894;SDS011;19251;49.484;8.260;2023-07-08T05:22:53;13.85;;;8.77;;
32894;SDS011;19251;49.484;8.260;2023-07-08T05:27:55;14.38;;;7.87;;
32894;SDS011;19251;49.484;8.260;2023-07-08T05:32:58;9.50;;;7.15;;
32894;SDS011;19251;49.484;8.260;2023-07-08T05:38:00;12.13;;;8.13;;
32894;SDS011;19251;49.484;8.260;2023-07-08T05:43:03;8.55;;;6.35;;
32894;SDS011;19251;49.484;8.260;2023-07-08T05:48:05;9.98;;;6.72;;
32894;SDS011;19251;49.484;8.260;2023-07-08T05:53:10;9.00;;;6.87;;
32894;SDS011;19251;49.484;8.260;2023-07-08T05:58:13;11.12;;;8.00;;
32894;SDS011;19251;49.484;8.260;2023-07-08T06:03:27;10.98;;;7.30;;
32894;SDS011;19251;49.484;8.260;2023-07-08T06:08:29;12.48;;;7.55;;
32894;SDS011;19251;49.484;8.260;2023-07-08T06:13:31;9.25;;;6.12;;
32894;SDS011;19251;49.484;8.260;2023-07-08T06:18:34;10.60;;;7.55;;
32894;SDS011;19251;49.484;8.260;2023-07-08T06:28:38;11.95;;;7.40;;
32894;SDS011;19251;49.484;8.260;2023-07-08T06:33:41;10.40;;;7.40;;
32894;SDS011;19251;49.484;8.260;2023-07-08T06:38:45;10.68;;;7.47;;
32894;SDS011;19251;49.484;8.260;2023-07-08T06:48:50;8.68;;;6.72;;
32894;SDS011;19251;49.484;8.260;2023-07-08T06:53:52;15.65;;;8.27;;
32894;SDS011;19251;49.484;8.260;2023-07-08T06:58:55;12.40;;;8.35;;
32894;SDS011;19251;49.484;8.260;2023-07-08T07:03:58;10.55;;;7.95;;
32894;SDS011;19251;49.484;8.260;2023-07-08T07:09:02;10.50;;;7.30;;
32894;SDS011;19251;49.484;8.260;2023-07-08T07:14:04;10.88;;;7.85;;
32894;SDS011;19251;49.484;8.260;2023-07-08T07:19:26;12.20;;;7.57;;
32894;SDS011;19251;49.484;8.260;2023-07-08T07:24:30;12.40;;;7.55;;
32894;SDS011;19251;49.484;8.260;2023-07-08T07:34:48;9.55;;;7.12;;
32894;SDS011;19251;49.484;8.260;2023-07-08T07:39:51;11.15;;;7.60;;
32894;SDS011;19251;49.484;8.260;2023-07-08T07:49:58;11.45;;;6.12;;
32894;SDS011;19251;49.484;8.260;2023-07-08T07:55:01;12.40;;;6.80;;
32894;SDS011;19251;49.484;8.260;2023-07-08T08:00:04;23.85;;;5.97;;
32894;SDS011;19251;49.484;8.260;2023-07-08T08:05:13;8.27;;;5.97;;
32894;SDS011;19251;49.484;8.260;2023-07-08T08:10:16;12.43;;;6.45;;
32894;SDS011;19251;49.484;8.260;2023-07-08T08:20:21;9.77;;;6.57;;
32894;SDS011;19251;49.484;8.260;2023-07-08T08:25:25;7.15;;;5.28;;
32894;SDS011;19251;49.484;8.260;2023-07-08T08:30:27;9.40;;;6.15;;
32894;SDS011;19251;49.484;8.260;2023-07-08T08:35:30;9.75;;;5.85;;
32894;SDS011;19251;49.484;8.260;2023-07-08T08:40:32;13.68;;;7.85;;
32894;SDS011;19251;49.484;8.260;2023-07-08T08:45:37;8.90;;;6.40;;
32894;SDS011;19251;49.484;8.260;2023-07-08T08:50:51;13.33;;;7.07;;
32894;SDS011;19251;49.484;8.260;2023-07-08T08:56:22;10.35;;;6.37;;
32894;SDS011;19251;49.484;8.260;2023-07-08T09:01:25;9.25;;;7.05;;
32894;SDS011;19251;49.484;8.260;2023-07-08T09:06:37;8.65;;;4.97;;
32894;SDS011;19251;49.484;8.260;2023-07-08T09:11:45;9.30;;;6.62;;
32894;SDS011;19251;49.484;8.260;2023-07-08T09:17:19;7.50;;;6.37;;
32894;SDS011;19251;49.484;8.260;2023-07-08T09:22:28;12.85;;;7.07;;
32894;SDS011;19251;49.484;8.260;2023-07-08T09:27:37;12.55;;;6.93;;
32894;SDS011;19251;49.484;8.260;2023-07-08T09:32:39;9.35;;;6.72;;
32894;SDS011;19251;49.484;8.260;2023-07-08T09:37:44;9.02;;;6.22;;
32894;SDS011;19251;49.484;8.260;2023-07-08T09:42:49;9.48;;;6.10;;
32894;SDS011;19251;49.484;8.260;2023-07-08T09:47:57;11.30;;;6.12;;
32894;SDS011;19251;49.484;8.260;2023-07-08T09:53:03;10.00;;;6.07;;
32894;SDS011;19251;49.484;8.260;2023-07-08T09:58:08;7.70;;;6.03;;
32894;SDS011;19251;49.484;8.260;2023-07-08T10:03:23;12.23;;;6.28;;
32894;SDS011;19251;49.484;8.260;2023-07-08T10:08:33;7.65;;;5.47;;
32894;SDS011;19251;49.484;8.260;2023-07-08T10:13:44;8.18;;;5.43;;
32894;SDS011;19251;49.484;8.260;2023-07-08T10:19:09;10.20;;;6.90;;
32894;SDS011;19251;49.484;8.260;2023-07-08T10:24:36;9.52;;;6.18;;
32894;SDS011;19251;49.484;8.260;2023-07-08T10:35:01;11.32;;;5.68;;
32894;SDS011;19251;49.484;8.260;2023-07-08T10:56:09;12.37;;;6.57;;
32894;SDS011;19251;49.484;8.260;2023-07-08T11:06:51;10.65;;;5.20;;
32894;SDS011;19251;49.484;8.260;2023-07-08T11:11:58;12.37;;;5.18;;
32894;SDS011;19251;49.484;8.260;2023-07-08T11:17:11;7.47;;;5.28;;
32894;SDS011;19251;49.484;8.260;2023-07-08T11:22:20;14.82;;;5.40;;
32894;SDS011;19251;49.484;8.260;2023-07-08T11:27:25;11.18;;;5.47;;
32894;SDS011;19251;49.484;8.260;2023-07-08T11:32:31;8.52;;;5.53;;
32894;SDS011;19251;49.484;8.260;2023-07-08T11:37:35;10.52;;;6.22;;
32894;SDS011;19251;49.484;8.260;2023-07-08T11:42:39;9.07;;;5.55;;
32894;SDS011;19251;49.484;8.260;2023-07-08T11:48:09;10.00;;;6.32;;
32894;SDS011;19251;49.484;8.260;2023-07-08T11:58:31;15.55;;;6.47;;
32894;SDS011;19251;49.484;8.260;2023-07-08T12:03:58;8.15;;;5.40;;
32894;SDS011;19251;49.484;8.260;2023-07-08T12:14:24;8.10;;;4.68;;
32894;SDS011;19251;49.484;8.260;2023-07-08T12:19:28;9.35;;;5.55;;
32894;SDS011;19251;49.484;8.260;2023-07-08T12:24:36;9.52;;;4.82;;
32894;SDS011;19251;49.484;8.260;2023-07-08T12:29:42;7.47;;;4.82;;
32894;SDS011;19251;49.484;8.260;2023-07-08T12:34:44;11.25;;;5.10;;
32894;SDS011;19251;49.484;8.260;2023-07-08T12:39:53;14.77;;;5.25;;
32894;SDS011;19251;49.484;8.260;2023-07-08T12:45:18;9.52;;;5.25;;
32894;SDS011;19251;49.484;8.260;2023-07-08T12:50:23;12.15;;;5.45;;
32894;SDS011;19251;49.484;8.260;2023-07-08T12:55:25;8.27;;;4.80;;
32894;SDS011;19251;49.484;8.260;2023-07-08T13:00:30;12.48;;;4.90;;
32894;SDS011;19251;49.484;8.260;2023-07-08T13:05:34;15.10;;;5.82;;
32894;SDS011;19251;49.484;8.260;2023-07-08T13:10:36;11.60;;;5.72;;
32894;SDS011;19251;49.484;8.260;2023-07-08T13:15:39;9.77;;;4.93;;
32894;SDS011;19251;49.484;8.260;2023-07-08T13:20:48;10.77;;;5.22;;
32894;SDS011;19251;49.484;8.260;2023-07-08T13:25:54;10.43;;;5.37;;
32894;SDS011;19251;49.484;8.260;2023-07-08T13:31:00;11.93;;;4.57;;
32894;SDS011;19251;49.484;8.260;2023-07-08T13:36:05;11.10;;;5.62;;
32894;SDS011;19251;49.484;8.260;2023-07-08T13:41:07;8.48;;;4.68;;
32894;SDS011;19251;49.484;8.260;2023-07-08T13:46:29;15.82;;;5.60;;
32894;SDS011;19251;49.484;8.260;2023-07-08T13:51:32;11.02;;;5.55;;
32894;SDS011;19251;49.484;8.260;2023-07-08T13:56:35;11.48;;;5.65;;
32894;SDS011;19251;49.484;8.260;2023-07-08T14:01:38;10.65;;;3.90;;
32894;SDS011;19251;49.484;8.260;2023-07-08T14:06:43;6.55;;;4.43;;
32894;SDS011;19251;49.484;8.260;2023-07-08T14:11:46;7.03;;;5.05;;
32894;SDS011;19251;49.484;8.260;2023-07-08T14:16:53;6.65;;;4.85;;
32894;SDS011;19251;49.484;8.260;2023-07-08T14:21:57;9.52;;;4.40;;
32894;SDS011;19251;49.484;8.260;2023-07-08T14:27:02;5.93;;;4.60;;
32894;SDS011;19251;49.484;8.260;2023-07-08T14:32:07;6.70;;;4.40;;
32894;SDS011;19251;49.484;8.260;2023-07-08T14:37:18;6.12;;;4.68;;
32894;SDS011;19251;49.484;8.260;2023-07-08T14:42:21;8.15;;;4.70;;
32894;SDS011;19251;49.484;8.260;2023-07-08T14:47:24;10.80;;;5.00;;
32894;SDS011;19251;49.484;8.260;2023-07-08T14:52:26;7.75;;;4.57;;
32894;SDS011;19251;49.484;8.260;2023-07-08T14:57:30;13.38;;;4.90;;
32894;SDS011;19251;49.484;8.260;2023-07-08T15:02:41;6.82;;;4.72;;
32894;SDS011;19251;49.484;8.260;2023-07-08T15:07:48;9.13;;;4.65;;
32894;SDS011;19251;49.484;8.260;2023-07-08T15:12:51;9.07;;;4.40;;
32894;SDS011;19251;49.484;8.260;2023-07-08T15:17:53;6.60;;;3.95;;
32894;SDS011;19251;49.484;8.260;2023-07-08T15:22:56;9.98;;;4.80;;
32894;SDS011;19251;49.484;8.260;2023-07-08T15:27:59;10.05;;;4.25;;
32894;SDS011;19251;49.484;8.260;2023-07-08T15:33:04;9.95;;;4.93;;
32894;SDS011;19251;49.484;8.260;2023-07-08T15:38:09;13.60;;;4.80;;
32894;SDS011;19251;49.484;8.260;2023-07-08T15:43:13;6.37;;;4.10;;
32894;SDS011;19251;49.484;8.260;2023-07-08T15:48:17;4.87;;;3.75;;
32894;SDS011;19251;49.484;8.260;2023-07-08T15:53:20;7.87;;;3.97;;
32894;SDS011;19251;49.484;8.260;2023-07-08T15:58:29;4.20;;;3.45;;
32894;SDS011;19251;49.484;8.260;2023-07-08T16:03:35;10.30;;;4.22;;
32894;SDS011;19251;49.484;8.260;2023-07-08T16:08:39;11.55;;;3.65;;
32894;SDS011;19251;49.484;8.260;2023-07-08T16:13:42;11.38;;;3.92;;
32894;SDS011;19251;49.484;8.260;2023-07-08T16:18:46;14.05;;;4.35;;
32894;SDS011;19251;49.484;8.260;2023-07-08T16:23:48;8.15;;;4.75;;
32894;SDS011;19251;49.484;8.260;2023-07-08T16:28:50;5.12;;;3.30;;
32894;SDS011;19251;49.484;8.260;2023-07-08T16:33:55;4.75;;;3.28;;
32894;SDS011;19251;49.484;8.260;2023-07-08T16:38:57;7.25;;;3.35;;
32894;SDS011;19251;49.484;8.260;2023-07-08T16:44:22;6.70;;;3.00;;
32894;SDS011;19251;49.484;8.260;2023-07-08T16:49:23;5.85;;;4.00;;
32894;SDS011;19251;49.484;8.260;2023-07-08T16:54:25;8.95;;;4.05;;
32894;SDS011;19251;49.484;8.260;2023-07-08T16:59:27;5.47;;;3.60;;
32894;SDS011;19251;49.484;8.260;2023-07-08T17:04:29;4.82;;;3.33;;
32894;SDS011;19251;49.484;8.260;2023-07-08T17:09:32;4.05;;;2.75;;
32894;SDS011;19251;49.484;8.260;2023-07-08T17:14:35;5.22;;;3.45;;
32894;SDS011;19251;49.484;8.260;2023-07-08T17:19:37;5.18;;;3.20;;
32894;SDS011;19251;49.484;8.260;2023-07-08T17:24:39;5.28;;;3.85;;
32894;SDS011;19251;49.484;8.260;2023-07-08T17:29:42;14.23;;;4.65;;
32894;SDS011;19251;49.484;8.260;2023-07-08T17:34:44;14.60;;;3.90;;
32894;SDS011;19251;49.484;8.260;2023-07-08T17:39:46;16.87;;;3.97;;
32894;SDS011;19251;49.484;8.260;2023-07-08T17:44:48;17.30;;;4.55;;
32894;SDS011;19251;49.484;8.260;2023-07-08T17:49:50;8.02;;;4.22;;
32894;SDS011;19251;49.484;8.260;2023-07-08T17:54:52;13.75;;;3.95;;
32894;SDS011;19251;49.484;8.260;2023-07-08T17:59:55;11.65;;;6.18;;
32894;SDS011;19251;49.484;8.260;2023-07-08T18:04:57;11.12;;;5.22;;
32894;SDS011;19251;49.484;8.260;2023-07-08T18:10:00;11.95;;;5.87;;
32894;SDS011;19251;49.484;8.260;2023-07-08T18:15:02;8.35;;;4.10;;
32894;SDS011;19251;49.484;8.260;2023-07-08T18:20:11;6.12;;;3.42;;
32894;SDS011;19251;49.484;8.260;2023-07-08T18:25:15;9.15;;;4.00;;
32894;SDS011;19251;49.484;8.260;2023-07-08T18:30:22;6.18;;;2.95;;
32894;SDS011;19251;49.484;8.260;2023-07-08T18:35:26;10.40;;;3.65;;
32894;SDS011;19251;49.484;8.260;2023-07-08T18:40:33;6.85;;;3.03;;
32894;SDS011;19251;49.484;8.260;2023-07-08T18:45:41;7.57;;;3.47;;
32894;SDS011;19251;49.484;8.260;2023-07-08T18:50:48;5.07;;;3.12;;
32894;SDS011;19251;49.484;8.260;2023-07-08T18:55:54;7.85;;;3.12;;
32894;SDS011;19251;49.484;8.260;2023-07-08T19:00:57;13.43;;;3.85;;
32894;SDS011;19251;49.484;8.260;2023-07-08T19:11:02;6.57;;;3.50;;
32894;SDS011;19251;49.484;8.260;2023-07-08T19:16:08;5.25;;;3.25;;
32894;SDS011;19251;49.484;8.260;2023-07-08T19:21:15;5.25;;;3.40;;
32894;SDS011;19251;49.484;8.260;2023-07-08T19:26:22;7.97;;;3.95;;
32894;SDS011;19251;49.484;8.260;2023-07-08T19:31:30;9.80;;;3.60;;
32894;SDS011;19251;49.484;8.260;2023-07-08T19:36:34;8.48;;;4.35;;
32894;SDS011;19251;49.484;8.260;2023-07-08T19:41:37;6.60;;;3.15;;
32894;SDS011;19251;49.484;8.260;2023-07-08T19:51:42;8.87;;;3.50;;
32894;SDS011;19251;49.484;8.260;2023-07-08T19:56:44;7.18;;;3.85;;
32894;SDS011;19251;49.484;8.260;2023-07-08T20:01:46;7.53;;;3.78;;
32894;SDS011;19251;49.484;8.260;2023-07-08T20:06:48;7.32;;;3.47;;
32894;SDS011;19251;49.484;8.260;2023-07-08T20:11:51;6.50;;;4.25;;
32894;SDS011;19251;49.484;8.260;2023-07-08T20:16:53;8.68;;;4.47;;
32894;SDS011;19251;49.484;8.260;2023-07-08T20:26:57;7.72;;;4.18;;
32894;SDS011;19251;49.484;8.260;2023-07-08T20:32:00;5.85;;;4.43;;
32894;SDS011;19251;49.484;8.260;2023-07-08T20:37:02;8.85;;;5.53;;
32894;SDS011;19251;49.484;8.260;2023-07-08T20:42:04;10.30;;;5.30;;
32894;SDS011;19251;49.484;8.260;2023-07-08T20:47:16;7.43;;;4.97;;
32894;SDS011;19251;49.484;8.260;2023-07-08T20:52:18;5.53;;;4.03;;
32894;SDS011;19251;49.484;8.260;2023-07-08T20:57:21;13.62;;;4.80;;
32894;SDS011;19251;49.484;8.260;2023-07-08T21:02:23;9.32;;;5.62;;
32894;SDS011;19251;49.484;8.260;2023-07-08T21:07:27;11.50;;;5.43;;
32894;SDS011;19251;49.484;8.260;2023-07-08T21:12:29;9.18;;;5.28;;
32894;SDS011;19251;49.484;8.260;2023-07-08T21:17:31;13.88;;;5.57;;
32894;SDS011;19251;49.484;8.260;2023-07-08T21:22:36;9.32;;;4.85;;
32894;SDS011;19251;49.484;8.260;2023-07-08T21:27:39;9.93;;;4.40;;
32894;SDS011;19251;49.484;8.260;2023-07-08T21:32:42;6.68;;;5.03;;
32894;SDS011;19251;49.484;8.260;2023-07-08T21:37:48;8.23;;;5.15;;
32894;SDS011;19251;49.484;8.260;2023-07-08T21:42:52;8.35;;;5.78;;
32894;SDS011;19251;49.484;8.260;2023-07-08T21:47:55;7.22;;;4.35;;
32894;SDS011;19251;49.484;8.260;2023-07-08T21:52:58;9.15;;;4.75;;
32894;SDS011;19251;49.484;8.260;2023-07-08T21:58:02;10.23;;;4.68;;
32894;SDS011;19251;49.484;8.260;2023-07-08T22:03:08;8.43;;;5.00;;
32894;SDS011;19251;49.484;8.260;2023-07-08T22:08:18;5.55;;;4.30;;
32894;SDS011;19251;49.484;8.260;2023-07-08T22:13:29;12.27;;;5.15;;
32894;SDS011;19251;49.484;8.260;2023-07-08T22:18:34;10.50;;;5.45;;
32894;SDS011;19251;49.484;8.260;2023-07-08T22:23:36;10.25;;;5.20;;
32894;SDS011;19251;49.484;8.260;2023-07-08T22:28:38;10.55;;;5.20;;
32894;SDS011;19251;49.484;8.260;2023-07-08T22:33:40;12.25;;;4.07;;
32894;SDS011;19251;49.484;8.260;2023-07-08T22:38:45;7.65;;;4.30;;
32894;SDS011;19251;49.484;8.260;2023-07-08T22:43:58;7.28;;;4.68;;
32894;SDS011;19251;49.484;8.260;2023-07-08T22:49:00;16.50;;;5.40;;
32894;SDS011;19251;49.484;8.260;2023-07-08T22:54:03;6.45;;;4.35;;
32894;SDS011;19251;49.484;8.260;2023-07-08T22:59:06;6.45;;;4.05;;
32894;SDS011;19251;49.484;8.260;2023-07-08T23:04:09;5.43;;;3.78;;
32894;SDS011;19251;49.484;8.260;2023-07-08T23:14:14;8.33;;;4.90;;
32894;SDS011;19251;49.484;8.260;2023-07-08T23:19:17;10.57;;;4.50;;
32894;SDS011;19251;49.484;8.260;2023-07-08T23:24:19;6.05;;;3.95;;
32894;SDS011;19251;49.484;8.260;2023-07-08T23:29:21;6.28;;;4.37;;
32894;SDS011;19251;49.484;8.260;2023-07-08T23:34:25;8.45;;;5.00;;
32894;SDS011;19251;49.484;8.260;2023-07-08T23:39:27;7.68;;;5.32;;
32894;SDS011;19251;49.484;8.260;2023-07-08T23:44:30;6.28;;;4.22;;
32894;SDS011;19251;49.484;8.260;2023-07-08T23:49:33;9.73;;;5.40;;
32894;SDS011;19251;49.484;8.260;2023-07-08T23:54:39;7.32;;;4.78;;
32894;SDS011;19251;49.484;8.260;2023-07-08T23:59:45;5.47;;;4.40;;
